Bailey Creek, Kentucky
Current Conditions -  °F | °C
As of 2:35 PM on Saturday 25 Oct 2014 (Local Time) from KI35 Reporting Station
Overcast Overcast  
Wind Chill: 66°   Ceiling: 4200
Heat Index: 66°   Visibility: 10mi
Dew Point: 45°   Wind: 3mph
Humidity: 46%   Direction: 220°SW
Pressure: 30.03"   Gusts: NA
Location:  36.8509°N, 83.1611°W
Report Text: KI35 251835Z AUTO 22003KT 10SM BKN042 OVC060 19/07 A3003 RMK AO1
Loading
Personal Weather Stations






























Interactive Weather Map
Tropical Storm Tracking
New forecast layout! Learn more

10-Day Weather Forecast

Advertisements
Track Severe Weather on mobile